Terminal Aerodrome Forecast
Issued by NWS Central Illinois

Home | Current Version | Previous Version | Text Only | Print | Product List | Glossary On
Versions: 1 2 3 4 5 6 7 8 9 10 11 12 13 14 15 16
296
FTUS43 KILX 042056 AAA
TAFSPI
TAF AMD
KSPI 042056Z 0421/0518 VRB03KT 4SM BR VCSH SCT007 OVC017
     FM050400 25005KT P6SM BKN010
     FM050900 26004KT 4SM BR BKN008
     FM051200 16007KT P6SM SCT020=

USA.gov is the U.S. government's official web portal to all federal, state and local government web resources and services.